createdAt,value
2019-04-01T00:02:12.580Z,3.30
2019-04-01T00:04:42.230Z,3.30
2019-04-01T00:07:11.901Z,3.30
2019-04-01T00:09:41.560Z,3.30
2019-04-01T00:12:11.359Z,3.20
2019-04-01T00:14:40.935Z,3.20
2019-04-01T00:17:10.612Z,3.20
2019-04-01T00:19:40.271Z,3.20
2019-04-01T00:22:09.934Z,3.10
2019-04-01T00:24:39.592Z,3.10
2019-04-01T00:27:09.269Z,3.10
2019-04-01T00:29:38.922Z,3.10
2019-04-01T00:32:08.600Z,3.20
2019-04-01T00:34:39.068Z,3.10
2019-04-01T00:37:09.112Z,3.10
2019-04-01T00:39:39.099Z,3.10
2019-04-01T00:42:13.142Z,3.20
2019-04-01T00:44:42.956Z,3.10
2019-04-01T00:47:12.992Z,3.00
2019-04-01T00:49:42.641Z,3.00
2019-04-01T00:52:12.356Z,3.00
2019-04-01T00:54:41.979Z,2.90
2019-04-01T00:57:11.664Z,2.90
2019-04-01T00:59:41.307Z,2.90
2019-04-01T01:02:10.988Z,2.80
2019-04-01T01:04:40.643Z,2.80
2019-04-01T01:07:10.317Z,2.80
2019-04-01T01:09:39.967Z,2.80
2019-04-01T01:12:09.652Z,2.70
2019-04-01T01:14:39.419Z,2.70
2019-04-01T01:17:09.099Z,2.70
2019-04-01T01:19:38.734Z,2.70
2019-04-01T01:22:08.565Z,2.60
2019-04-01T01:24:38.335Z,2.70
2019-04-01T01:27:08.176Z,2.70
2019-04-01T01:29:37.827Z,2.70
2019-04-01T01:32:07.925Z,2.70
2019-04-01T01:34:37.911Z,2.60
2019-04-01T01:37:07.736Z,2.60
2019-04-01T01:39:37.543Z,2.50
2019-04-01T01:42:07.369Z,2.50
2019-04-01T01:44:37.503Z,2.60
2019-04-01T01:47:07.611Z,2.50
2019-04-01T01:49:37.399Z,2.50
2019-04-01T01:52:07.647Z,2.50
2019-04-01T01:54:37.436Z,2.40
2019-04-01T01:57:07.261Z,2.40
2019-04-01T01:59:37.053Z,2.40
2019-04-01T02:02:07.494Z,2.30
2019-04-01T02:04:37.295Z,2.30
2019-04-01T02:07:07.128Z,2.30
2019-04-01T02:09:36.781Z,2.30
2019-04-01T02:12:06.632Z,2.30
2019-04-01T02:14:36.805Z,2.30
2019-04-01T02:17:06.643Z,2.20
2019-04-01T02:19:36.411Z,2.20
2019-04-01T02:22:06.179Z,2.20
2019-04-01T02:24:35.833Z,2.10
2019-04-01T02:27:05.936Z,2.10
2019-04-01T02:29:35.726Z,2.10
2019-04-01T02:32:05.559Z,2.10
2019-04-01T02:34:35.230Z,2.10
2019-04-01T02:37:04.896Z,2.00
2019-04-01T02:39:34.554Z,2.00
2019-04-01T02:42:05.314Z,2.00
2019-04-01T02:44:34.992Z,2.00
2019-04-01T02:47:04.732Z,2.00
2019-04-01T02:49:34.758Z,2.00
2019-04-01T02:52:04.409Z,1.90
2019-04-01T02:54:34.388Z,1.90
2019-04-01T02:57:04.714Z,1.90
2019-04-01T02:59:34.816Z,1.80
2019-04-01T03:02:04.780Z,1.80
2019-04-01T03:04:34.765Z,1.80
2019-04-01T03:07:04.529Z,1.70
2019-04-01T03:09:34.368Z,1.70
2019-04-01T03:12:04.259Z,1.60
2019-04-01T03:14:53.774Z,1.60
2019-04-01T03:17:23.572Z,1.60
2019-04-01T03:19:53.363Z,1.50
2019-04-01T03:22:23.201Z,1.60
2019-04-01T03:24:52.846Z,1.50
2019-04-01T03:27:22.722Z,1.50
2019-04-01T03:29:52.630Z,1.50
2019-04-01T03:32:22.561Z,1.40
2019-04-01T03:34:52.334Z,1.40
2019-04-01T03:37:22.284Z,1.40
2019-04-01T03:39:52.036Z,1.40
2019-04-01T03:42:21.705Z,1.40
2019-04-01T03:45:10.896Z,1.40
2019-04-01T03:47:40.795Z,1.30
2019-04-01T03:50:10.467Z,1.30
2019-04-01T03:52:40.387Z,1.30
2019-04-01T03:55:10.058Z,1.20
2019-04-01T03:57:39.711Z,1.20
2019-04-01T04:00:09.644Z,1.20
2019-04-01T04:02:39.267Z,1.20
2019-04-01T04:05:09.686Z,1.20
2019-04-01T04:07:39.710Z,1.20
2019-04-01T04:10:09.835Z,1.20
2019-04-01T04:12:39.724Z,1.20
2019-04-01T04:15:10.160Z,1.10
2019-04-01T04:17:39.807Z,1.10
2019-04-01T04:20:09.911Z,1.00
2019-04-01T04:22:39.900Z,0.90
2019-04-01T04:25:10.023Z,0.90
2019-04-01T04:27:39.824Z,1.00
2019-04-01T04:30:09.956Z,1.10
2019-04-01T04:32:39.754Z,1.10
2019-04-01T04:35:09.408Z,1.00
2019-04-01T04:37:39.176Z,0.90
2019-04-01T04:40:09.403Z,1.00
2019-04-01T04:42:39.523Z,1.00
2019-04-01T04:45:09.743Z,1.00
2019-04-01T04:47:39.519Z,0.90
2019-04-01T04:50:09.601Z,0.90
2019-04-01T04:52:39.380Z,0.90
2019-04-01T04:55:09.515Z,0.90
2019-04-01T04:57:39.315Z,1.00
2019-04-01T05:02:50.622Z,1.00
2019-04-01T05:05:20.441Z,1.10
2019-04-01T05:07:50.449Z,1.10
2019-04-01T05:10:20.467Z,1.10
2019-04-01T05:12:50.414Z,1.20
2019-04-01T05:15:20.062Z,1.20
2019-04-01T05:17:49.845Z,1.30
2019-04-01T05:20:20.062Z,1.30
2019-04-01T05:22:50.445Z,1.40
2019-04-01T05:25:20.094Z,1.50
2019-04-01T05:27:51.811Z,1.60
2019-04-01T05:30:21.467Z,1.60
2019-04-01T05:32:54.349Z,1.60
2019-04-01T05:35:25.243Z,1.70
2019-04-01T05:37:55.969Z,1.80
2019-04-01T05:40:26.591Z,1.90
2019-04-01T05:42:56.337Z,2.10
2019-04-01T05:45:25.996Z,2.10
2019-04-01T05:47:57.748Z,2.20
2019-04-01T05:50:27.655Z,2.30
2019-04-01T05:52:57.680Z,2.40
2019-04-01T05:55:27.706Z,2.50
2019-04-01T05:57:57.539Z,2.60
2019-04-01T06:00:29.304Z,2.80
2019-04-01T06:02:59.387Z,3.00
2019-04-01T06:05:29.436Z,3.30
2019-04-01T06:07:59.119Z,4.10
2019-04-01T06:10:28.791Z,5.90
2019-04-01T06:12:59.147Z,7.90
2019-04-01T06:15:28.790Z,10.10
2019-04-01T06:17:58.467Z,12.00
2019-04-01T06:20:28.522Z,13.30
2019-04-01T06:22:58.458Z,14.30
2019-04-01T06:25:28.144Z,14.80
2019-04-01T06:27:58.189Z,15.70
2019-04-01T06:30:28.379Z,16.20
2019-04-01T06:32:58.130Z,16.70
2019-04-01T06:35:27.892Z,16.90
2019-04-01T06:37:57.587Z,17.40
2019-04-01T06:40:27.522Z,17.80
2019-04-01T06:42:57.187Z,18.30
2019-04-01T06:45:27.258Z,19.00
2019-04-01T06:47:57.263Z,19.10
2019-04-01T06:50:27.594Z,18.80
2019-04-01T06:52:57.925Z,18.60
2019-04-01T06:55:28.140Z,18.80
2019-04-01T06:57:57.882Z,19.60
2019-04-01T07:00:27.563Z,19.60
2019-04-01T07:02:57.218Z,18.50
2019-04-01T07:05:27.091Z,17.60
2019-04-01T07:07:56.748Z,18.40
2019-04-01T07:10:26.430Z,19.10
2019-04-01T07:12:56.155Z,18.50
2019-04-01T07:15:25.840Z,18.30
2019-04-01T07:17:55.726Z,17.30
2019-04-01T07:20:25.856Z,15.50
2019-04-01T07:22:55.776Z,13.80
2019-04-01T07:25:25.794Z,12.60
2019-04-01T07:27:55.539Z,11.80
2019-04-01T07:30:25.510Z,11.30
2019-04-01T07:32:55.163Z,10.90
2019-04-01T07:35:24.911Z,10.60
2019-04-01T07:37:54.577Z,10.40
2019-04-01T07:40:24.242Z,10.30
2019-04-01T07:42:53.971Z,10.10
2019-04-01T07:45:23.775Z,9.90
2019-04-01T07:47:53.667Z,9.70
2019-04-01T07:50:23.587Z,9.60
2019-04-01T07:52:55.401Z,9.50
2019-04-01T07:55:25.322Z,9.40
2019-04-01T07:57:55.155Z,9.40
2019-04-01T08:00:24.827Z,9.40
2019-04-01T08:02:55.219Z,9.30
2019-04-01T08:05:26.182Z,9.20
2019-04-01T08:07:56.005Z,8.90
2019-04-01T08:10:25.672Z,8.70
2019-04-01T08:12:55.396Z,8.70
2019-04-01T08:15:25.043Z,8.80
2019-04-01T08:17:55.126Z,8.70
2019-04-01T08:20:24.768Z,8.70
2019-04-01T08:22:54.739Z,8.60
2019-04-01T08:25:24.452Z,8.70
2019-04-01T08:27:54.126Z,8.70
2019-04-01T08:30:23.780Z,8.70
2019-04-01T08:32:53.511Z,8.70
2019-04-01T08:35:23.323Z,8.70
2019-04-01T08:37:53.617Z,8.70
2019-04-01T08:40:23.608Z,8.60
2019-04-01T08:42:53.743Z,8.60
2019-04-01T08:45:23.439Z,8.70
2019-04-01T08:47:53.583Z,8.80
2019-04-01T08:50:23.822Z,8.90
2019-04-01T08:52:53.589Z,9.00
2019-04-01T08:55:23.525Z,9.10
2019-04-01T08:57:53.979Z,9.20
2019-04-01T09:00:24.082Z,9.20
2019-04-01T09:02:53.726Z,9.20
2019-04-01T09:05:23.590Z,9.20
2019-04-01T09:07:53.823Z,9.20
2019-04-01T09:10:23.622Z,9.10
2019-04-01T09:12:54.263Z,9.00
2019-04-01T09:15:24.407Z,9.00
2019-04-01T09:17:54.911Z,9.00
2019-04-01T09:20:24.723Z,9.00
2019-04-01T09:22:54.611Z,8.80
2019-04-01T09:25:24.423Z,8.80
2019-04-01T09:27:54.571Z,8.80
2019-04-01T09:30:24.374Z,8.80
2019-04-01T09:32:54.167Z,8.90
2019-04-01T09:35:23.842Z,8.90
2019-04-01T09:37:54.023Z,8.80
2019-04-01T09:40:23.885Z,8.70
2019-04-01T09:42:53.680Z,8.70
2019-04-01T09:45:23.559Z,8.70
2019-04-01T09:47:53.383Z,8.50
2019-04-01T09:50:23.278Z,8.50
2019-04-01T09:52:53.516Z,8.50
2019-04-01T09:55:23.474Z,8.40
2019-04-01T09:57:53.248Z,8.30
2019-04-01T10:00:23.236Z,8.30
2019-04-01T10:02:53.267Z,8.10
2019-04-01T10:05:23.507Z,8.20
2019-04-01T10:07:53.649Z,8.30
2019-04-01T10:10:23.494Z,8.40
2019-04-01T10:12:53.376Z,8.50
2019-04-01T10:15:23.463Z,8.60
2019-04-01T10:17:53.611Z,8.50
2019-04-01T10:20:23.478Z,8.50
2019-04-01T10:22:53.814Z,8.40
2019-04-01T10:25:23.606Z,8.30
2019-04-01T10:27:53.878Z,8.30
2019-04-01T10:30:25.006Z,8.30
2019-04-01T10:32:54.798Z,8.40
2019-04-01T10:35:24.822Z,8.30
2019-04-01T10:37:54.615Z,8.40
2019-04-01T10:40:24.423Z,8.30
2019-04-01T10:42:54.675Z,8.50
2019-04-01T10:45:24.791Z,8.60
2019-04-01T10:47:54.732Z,8.50
2019-04-01T10:50:24.583Z,8.40
2019-04-01T10:52:54.351Z,8.60
2019-04-01T10:55:24.012Z,8.70
2019-04-01T10:57:54.433Z,8.70
2019-04-01T11:00:24.446Z,8.70
2019-04-01T11:02:54.145Z,8.70
2019-04-01T11:05:23.791Z,8.60
2019-04-01T11:07:53.868Z,8.70
2019-04-01T11:10:24.083Z,8.80
2019-04-01T11:12:54.014Z,8.70
2019-04-01T11:15:24.310Z,8.60
2019-04-01T11:17:54.263Z,8.70
2019-04-01T11:20:23.999Z,8.80
2019-04-01T11:22:54.019Z,9.00
2019-04-01T11:25:23.768Z,9.10
2019-04-01T11:27:53.519Z,9.10
2019-04-01T11:30:23.767Z,9.20
2019-04-01T11:32:53.574Z,9.30
2019-04-01T11:35:23.280Z,9.30
2019-04-01T11:37:53.065Z,9.40
2019-04-01T11:40:23.149Z,9.40
2019-04-01T11:42:53.336Z,9.40
2019-04-01T11:45:23.227Z,9.50
2019-04-01T11:47:53.328Z,9.60
2019-04-01T11:50:22.977Z,9.70
2019-04-01T11:52:52.631Z,9.80
2019-04-01T11:55:22.304Z,9.80
2019-04-01T11:57:52.066Z,9.70
2019-04-01T12:00:22.051Z,9.70
2019-04-01T12:02:51.826Z,9.60
2019-04-01T12:05:21.865Z,9.70
2019-04-01T12:07:51.871Z,9.80
2019-04-01T12:10:21.518Z,9.80
2019-04-01T12:12:51.490Z,9.90
2019-04-01T12:15:21.749Z,10.00
2019-04-01T12:17:51.514Z,10.00
2019-04-01T12:20:22.164Z,9.90
2019-04-01T12:22:51.967Z,9.90
2019-04-01T12:25:21.722Z,10.00
2019-04-01T12:27:51.401Z,10.10
2019-04-01T12:30:21.075Z,10.20
2019-04-01T12:32:50.727Z,10.20
2019-04-01T12:35:20.407Z,10.30
2019-04-01T12:37:50.439Z,10.30
2019-04-01T12:40:20.116Z,10.30
2019-04-01T12:42:50.929Z,10.40
2019-04-01T12:45:20.959Z,10.40
2019-04-01T12:47:51.122Z,10.40
2019-04-01T12:50:21.139Z,10.40
2019-04-01T12:52:50.918Z,10.40
2019-04-01T12:55:20.597Z,10.50
2019-04-01T12:57:50.984Z,10.50
2019-04-01T13:00:22.267Z,10.50
2019-04-01T13:02:52.291Z,10.60
2019-04-01T13:05:22.050Z,10.60
2019-04-01T13:07:54.370Z,10.70
2019-04-01T13:10:24.187Z,10.70
2019-04-01T13:12:54.302Z,10.80
2019-04-01T13:15:24.886Z,10.80
2019-04-01T13:17:54.975Z,10.80
2019-04-01T13:20:37.030Z,10.80
2019-04-01T13:22:56.843Z,10.80
2019-04-01T13:25:26.494Z,10.70
2019-04-01T13:27:57.136Z,10.70
2019-04-01T13:30:27.027Z,10.70
2019-04-01T13:32:56.711Z,10.70
2019-04-01T13:35:26.663Z,10.60
2019-04-01T13:37:56.688Z,10.60
2019-04-01T13:40:26.731Z,10.60
2019-04-01T13:42:56.413Z,10.60
2019-04-01T13:45:31.141Z,10.70
2019-04-01T13:47:57.356Z,10.70
2019-04-01T13:50:27.488Z,10.70
2019-04-01T13:52:57.271Z,10.70
2019-04-01T13:55:27.414Z,10.70
2019-04-01T13:57:57.206Z,10.70
2019-04-01T14:00:27.541Z,10.80
2019-04-01T14:02:57.441Z,10.80
2019-04-01T14:05:27.591Z,10.80
2019-04-01T14:07:57.375Z,10.80
2019-04-01T14:10:27.209Z,10.90
2019-04-01T14:12:56.871Z,10.90
2019-04-01T14:15:26.658Z,10.90
2019-04-01T14:17:56.624Z,10.90
2019-04-01T14:20:26.975Z,10.90
2019-04-01T14:22:56.631Z,10.90
2019-04-01T14:25:26.808Z,11.00
2019-04-01T14:27:56.510Z,11.00
2019-04-01T14:30:26.090Z,11.10
2019-04-01T14:32:55.766Z,11.00
2019-04-01T14:35:25.946Z,11.10
2019-04-01T14:37:58.160Z,11.00
2019-04-01T14:40:27.212Z,11.00
2019-04-01T14:42:56.866Z,11.10
2019-04-01T14:45:26.735Z,11.10
2019-04-01T14:47:58.075Z,11.10
2019-04-01T14:50:28.615Z,11.10
2019-04-01T14:52:58.839Z,11.10
2019-04-01T14:55:28.638Z,11.10
2019-04-01T14:58:00.367Z,11.10
2019-04-01T15:00:30.476Z,11.10
2019-04-01T15:03:00.311Z,11.10
2019-04-01T15:05:30.206Z,11.10
2019-04-01T15:07:59.864Z,11.10
2019-04-01T15:10:29.778Z,11.10
2019-04-01T15:13:05.593Z,11.10
2019-04-01T15:15:31.022Z,11.10
2019-04-01T15:18:00.680Z,11.20
2019-04-01T15:20:30.939Z,11.20
2019-04-01T15:23:01.392Z,11.20
2019-04-01T15:25:31.797Z,11.20
2019-04-01T15:28:02.442Z,11.20
2019-04-01T15:30:32.570Z,11.20
2019-04-01T15:33:02.794Z,11.20
2019-04-01T15:35:32.768Z,11.10
2019-04-01T15:38:02.707Z,11.20
2019-04-01T15:40:33.374Z,11.20
2019-04-01T15:43:03.358Z,11.20
2019-04-01T15:45:33.246Z,11.10
2019-04-01T15:48:03.036Z,11.20
2019-04-01T15:50:33.424Z,11.10
2019-04-01T15:53:03.757Z,11.10
2019-04-01T15:55:33.876Z,11.10
2019-04-01T15:58:14.295Z,11.10
2019-04-01T16:00:44.134Z,11.10
2019-04-01T16:03:14.054Z,11.10
2019-04-01T16:05:43.854Z,11.00
2019-04-01T16:08:13.996Z,11.00
2019-04-01T16:10:43.881Z,11.00
2019-04-01T16:13:14.329Z,11.00
2019-04-01T16:15:44.470Z,10.90
2019-04-01T16:18:14.133Z,10.90
2019-04-01T16:20:44.104Z,10.90
2019-04-01T16:23:13.863Z,10.90
2019-04-01T16:25:43.816Z,10.90
2019-04-01T16:28:13.479Z,10.80
2019-04-01T16:30:43.523Z,10.80
2019-04-01T16:33:13.174Z,10.70
2019-04-01T16:35:43.560Z,10.70
2019-04-01T16:38:13.262Z,10.70
2019-04-01T16:40:43.191Z,10.60
2019-04-01T16:43:12.882Z,10.60
2019-04-01T16:45:43.096Z,10.50
2019-04-01T16:48:13.245Z,10.60
2019-04-01T16:50:42.914Z,10.50
2019-04-01T16:53:12.746Z,10.50
2019-04-01T16:55:42.939Z,10.50
2019-04-01T16:58:12.811Z,10.40
2019-04-01T17:00:42.810Z,10.40
2019-04-01T17:03:13.656Z,10.30
2019-04-01T17:05:43.666Z,10.30
2019-04-01T17:08:13.882Z,10.20
2019-04-01T17:10:43.651Z,10.20
2019-04-01T17:13:13.606Z,10.20
2019-04-01T17:15:43.729Z,10.10
2019-04-01T17:18:13.630Z,10.10
2019-04-01T17:20:43.323Z,10.00
2019-04-01T17:23:13.575Z,10.00
2019-04-01T17:25:43.591Z,9.90
2019-04-01T17:28:13.579Z,9.80
2019-04-01T17:30:43.422Z,9.80
2019-04-01T17:33:13.308Z,9.80
2019-04-01T17:35:43.082Z,9.70
2019-04-01T17:38:13.822Z,9.60
2019-04-01T17:40:43.595Z,9.50
2019-04-01T17:43:13.679Z,9.50
2019-04-01T17:45:43.550Z,9.40
2019-04-01T17:48:13.223Z,9.30
2019-04-01T17:50:43.092Z,9.30
2019-04-01T17:53:14.373Z,9.20
2019-04-01T17:55:45.753Z,9.10
2019-04-01T17:58:15.959Z,9.00
2019-04-01T18:00:56.659Z,9.00
2019-04-01T18:03:26.759Z,8.90
2019-04-01T18:05:56.873Z,8.80
2019-04-01T18:08:26.655Z,8.80
2019-04-01T18:10:57.397Z,8.70
2019-04-01T18:13:27.726Z,8.60
2019-04-01T18:15:57.703Z,8.60
2019-04-01T18:18:27.788Z,8.50
2019-04-01T18:20:57.450Z,8.50
2019-04-01T18:23:27.151Z,8.40
2019-04-01T18:25:57.116Z,8.40
2019-04-01T18:28:26.891Z,8.30
2019-04-01T18:30:56.539Z,8.20
2019-04-01T18:33:26.426Z,8.20
2019-04-01T18:35:56.074Z,8.20
2019-04-01T18:38:25.892Z,8.20
2019-04-01T18:40:55.882Z,8.10
2019-04-01T18:43:25.674Z,8.10
2019-04-01T18:45:55.818Z,8.10
2019-04-01T18:48:25.934Z,8.00
2019-04-01T18:50:55.819Z,7.90
2019-04-01T18:53:28.484Z,7.90
2019-04-01T18:55:57.664Z,7.80
2019-04-01T18:58:27.694Z,7.80
2019-04-01T19:00:57.447Z,7.80
2019-04-01T19:03:27.364Z,7.70
2019-04-01T19:05:57.239Z,7.70
2019-04-01T19:08:26.922Z,7.70
2019-04-01T19:11:02.471Z,7.70
2019-04-01T19:13:28.239Z,7.60
2019-04-01T19:15:58.617Z,7.60
2019-04-01T19:18:29.279Z,7.60
2019-04-01T19:21:03.157Z,7.60
2019-04-01T19:23:31.093Z,7.60
2019-04-01T19:26:01.282Z,7.50
2019-04-01T19:28:31.255Z,7.50
2019-04-01T19:31:01.343Z,7.50
2019-04-01T19:33:30.992Z,7.40
2019-04-01T19:36:01.378Z,7.40
2019-04-01T19:38:31.334Z,7.40
2019-04-01T19:41:01.066Z,7.30
2019-04-01T19:43:31.025Z,7.30
2019-04-01T19:46:00.732Z,7.30
2019-04-01T19:48:31.319Z,7.20
2019-04-01T19:51:01.874Z,7.20
2019-04-01T19:53:31.906Z,7.20
2019-04-01T19:56:03.005Z,7.10
2019-04-01T19:58:32.755Z,7.20
2019-04-01T20:01:02.980Z,7.20
2019-04-01T20:03:33.098Z,7.20
2019-04-01T20:06:03.003Z,7.20
2019-04-01T20:08:32.868Z,7.20
2019-04-01T20:11:02.594Z,7.10
2019-04-01T20:13:32.381Z,7.10
2019-04-01T20:16:02.082Z,7.00
2019-04-01T20:18:31.730Z,7.00
2019-04-01T20:21:01.802Z,7.00
2019-04-01T20:23:31.526Z,7.00
2019-04-01T20:26:01.488Z,7.00
2019-04-01T20:28:31.140Z,6.90
2019-04-01T20:31:00.891Z,6.90
2019-04-01T20:33:31.786Z,6.90
2019-04-01T20:36:01.885Z,6.90
2019-04-01T20:38:32.006Z,6.90
2019-04-01T20:41:02.122Z,6.80
2019-04-01T20:43:31.887Z,6.80
2019-04-01T20:46:01.736Z,6.70
2019-04-01T20:48:33.077Z,6.70
2019-04-01T20:51:03.321Z,6.70
2019-04-01T20:53:33.020Z,6.60
2019-04-01T20:56:03.047Z,6.60
2019-04-01T20:58:32.724Z,6.60
2019-04-01T21:01:02.761Z,6.50
2019-04-01T21:03:33.585Z,6.50
2019-04-01T21:06:03.390Z,6.50
2019-04-01T21:08:33.443Z,6.40
2019-04-01T21:11:03.556Z,6.40
2019-04-01T21:13:35.024Z,6.40
2019-04-01T21:16:05.018Z,6.30
2019-04-01T21:18:35.044Z,6.30
2019-04-01T21:21:04.870Z,6.20
2019-04-01T21:23:35.145Z,6.20
2019-04-01T21:26:05.886Z,6.20
2019-04-01T21:28:36.140Z,6.20
2019-04-01T21:31:05.924Z,6.20
2019-04-01T21:33:35.571Z,6.20
2019-04-01T21:36:06.807Z,6.10
2019-04-01T21:38:36.891Z,6.10
2019-04-01T21:41:06.722Z,6.10
2019-04-01T21:43:36.518Z,6.10
2019-04-01T21:46:06.287Z,6.10
2019-04-01T21:48:36.140Z,6.10
2019-04-01T21:51:05.811Z,6.00
2019-04-01T21:53:35.662Z,6.10
2019-04-01T21:56:05.498Z,6.20
2019-04-01T21:58:35.394Z,6.20
2019-04-01T22:01:24.667Z,6.20
2019-04-01T22:03:55.461Z,6.20
2019-04-01T22:06:25.682Z,6.30
2019-04-01T22:08:55.966Z,6.30
2019-04-01T22:11:25.987Z,6.30
2019-04-01T22:13:56.093Z,6.30
2019-04-01T22:16:26.014Z,6.20
2019-04-01T22:18:56.035Z,6.20
2019-04-01T22:21:25.682Z,6.20
2019-04-01T22:23:56.283Z,6.10
2019-04-01T22:26:27.150Z,6.10
2019-04-01T22:28:57.667Z,6.10
2019-04-01T22:31:27.549Z,6.00
2019-04-01T22:33:57.340Z,6.10
2019-04-01T22:36:31.156Z,6.10
2019-04-01T22:38:58.716Z,6.00
2019-04-01T22:41:29.357Z,6.00
2019-04-01T22:43:59.654Z,6.00
2019-04-01T22:46:29.808Z,6.00
2019-04-01T22:49:00.034Z,6.00
2019-04-01T22:51:29.720Z,6.00
2019-04-01T22:53:59.396Z,6.00
2019-04-01T22:56:29.043Z,6.00
2019-04-01T22:58:58.693Z,5.90
2019-04-01T23:01:28.892Z,5.80
2019-04-01T23:03:59.003Z,5.70
2019-04-01T23:06:29.330Z,5.70
2019-04-01T23:09:00.090Z,5.60
2019-04-01T23:11:30.328Z,5.60
2019-04-01T23:13:59.980Z,5.50
2019-04-01T23:16:29.656Z,5.50
2019-04-01T23:18:59.302Z,5.50
2019-04-01T23:21:31.085Z,5.50
2019-04-01T23:24:00.603Z,5.40
2019-04-01T23:26:30.295Z,5.40
2019-04-01T23:29:00.317Z,5.40
2019-04-01T23:31:29.986Z,5.30
2019-04-01T23:33:59.641Z,5.30
2019-04-01T23:36:29.315Z,5.20
2019-04-01T23:38:58.966Z,5.20
2019-04-01T23:41:30.093Z,5.20
2019-04-01T23:43:59.897Z,5.20
2019-04-01T23:46:29.577Z,5.10
2019-04-01T23:48:59.527Z,5.10
2019-04-01T23:51:29.211Z,5.00
2019-04-01T23:53:58.855Z,5.10
2019-04-01T23:56:28.648Z,5.00
2019-04-01T23:58:58.298Z,5.00
